sensor_id;sensor_type;location;lat;lon;timestamp;pressure;altitude;pressure_sealevel;temperature;humidity
27429;BME280;14881;48.092;11.574;2023-08-31T00:02:07;94966.81;;;12.38;100.00
27429;BME280;14881;48.092;11.574;2023-08-31T00:04:35;94968.38;;;12.30;100.00
27429;BME280;14881;48.092;11.574;2023-08-31T00:07:01;94964.84;;;12.30;100.00
27429;BME280;14881;48.092;11.574;2023-08-31T00:09:28;94962.47;;;12.28;100.00
27429;BME280;14881;48.092;11.574;2023-08-31T00:11:56;94970.44;;;12.25;100.00
27429;BME280;14881;48.092;11.574;2023-08-31T00:14:22;94964.81;;;12.21;100.00
27429;BME280;14881;48.092;11.574;2023-08-31T00:16:49;94963.03;;;12.16;100.00
27429;BME280;14881;48.092;11.574;2023-08-31T00:19:16;94970.53;;;12.11;100.00
27429;BME280;14881;48.092;11.574;2023-08-31T00:21:43;94971.47;;;12.06;100.00
27429;BME280;14881;48.092;11.574;2023-08-31T00:24:09;94976.22;;;12.01;100.00
27429;BME280;14881;48.092;11.574;2023-08-31T00:26:36;94979.56;;;11.98;100.00
27429;BME280;14881;48.092;11.574;2023-08-31T00:29:08;94970.44;;;11.94;100.00
27429;BME280;14881;48.092;11.574;2023-08-31T00:31:36;94973.78;;;11.91;100.00
27429;BME280;14881;48.092;11.574;2023-08-31T00:34:03;94983.69;;;11.87;100.00
27429;BME280;14881;48.092;11.574;2023-08-31T00:36:30;94982.97;;;11.81;100.00
27429;BME280;14881;48.092;11.574;2023-08-31T00:38:57;94984.22;;;11.75;100.00
27429;BME280;14881;48.092;11.574;2023-08-31T00:41:23;94985.31;;;11.74;100.00
27429;BME280;14881;48.092;11.574;2023-08-31T00:43:49;94982.72;;;11.69;100.00
27429;BME280;14881;48.092;11.574;2023-08-31T00:46:17;94985.25;;;11.65;100.00
27429;BME280;14881;48.092;11.574;2023-08-31T00:48:43;94983.13;;;11.62;100.00
27429;BME280;14881;48.092;11.574;2023-08-31T00:51:09;94985.69;;;11.59;100.00
27429;BME280;14881;48.092;11.574;2023-08-31T00:53:37;94987.41;;;11.55;100.00
27429;BME280;14881;48.092;11.574;2023-08-31T00:56:04;94980.97;;;11.50;100.00
27429;BME280;14881;48.092;11.574;2023-08-31T00:58:32;94986.53;;;11.45;100.00
27429;BME280;14881;48.092;11.574;2023-08-31T01:01:03;94988.59;;;11.40;100.00
27429;BME280;14881;48.092;11.574;2023-08-31T01:03:36;94985.38;;;11.38;100.00
27429;BME280;14881;48.092;11.574;2023-08-31T01:06:12;94984.06;;;11.35;100.00
27429;BME280;14881;48.092;11.574;2023-08-31T01:08:48;94984.06;;;11.35;100.00
27429;BME280;14881;48.092;11.574;2023-08-31T01:11:22;94973.47;;;11.34;100.00
27429;BME280;14881;48.092;11.574;2023-08-31T01:13:53;94975.50;;;11.28;100.00
27429;BME280;14881;48.092;11.574;2023-08-31T01:16:24;94974.69;;;11.28;100.00
27429;BME280;14881;48.092;11.574;2023-08-31T01:18:52;94974.53;;;11.24;100.00
27429;BME280;14881;48.092;11.574;2023-08-31T01:21:24;94972.41;;;11.21;100.00
27429;BME280;14881;48.092;11.574;2023-08-31T01:23:55;94979.38;;;11.13;100.00
27429;BME280;14881;48.092;11.574;2023-08-31T01:26:23;94987.22;;;11.15;100.00
27429;BME280;14881;48.092;11.574;2023-08-31T01:28:51;94987.97;;;11.07;100.00
27429;BME280;14881;48.092;11.574;2023-08-31T01:31:18;94985.72;;;11.09;100.00
27429;BME280;14881;48.092;11.574;2023-08-31T01:33:44;94994.31;;;11.02;100.00
27429;BME280;14881;48.092;11.574;2023-08-31T01:36:16;94986.53;;;11.09;100.00
27429;BME280;14881;48.092;11.574;2023-08-31T01:38:48;94989.75;;;11.11;100.00
27429;BME280;14881;48.092;11.574;2023-08-31T01:41:19;94983.81;;;11.23;100.00
27429;BME280;14881;48.092;11.574;2023-08-31T01:43:48;94988.78;;;11.30;100.00
27429;BME280;14881;48.092;11.574;2023-08-31T01:46:17;94986.47;;;11.37;100.00
27429;BME280;14881;48.092;11.574;2023-08-31T01:48:44;94991.00;;;11.41;100.00
27429;BME280;14881;48.092;11.574;2023-08-31T01:51:10;94979.19;;;11.46;100.00
27429;BME280;14881;48.092;11.574;2023-08-31T01:53:37;94988.22;;;11.55;100.00
27429;BME280;14881;48.092;11.574;2023-08-31T01:56:04;94988.09;;;11.60;100.00
27429;BME280;14881;48.092;11.574;2023-08-31T01:58:31;94986.06;;;11.66;100.00
27429;BME280;14881;48.092;11.574;2023-08-31T02:00:57;94987.06;;;11.70;100.00
27429;BME280;14881;48.092;11.574;2023-08-31T02:03:24;94982.09;;;11.72;100.00
27429;BME280;14881;48.092;11.574;2023-08-31T02:05:50;94986.66;;;11.76;100.00
27429;BME280;14881;48.092;11.574;2023-08-31T02:08:16;94987.13;;;11.78;100.00
27429;BME280;14881;48.092;11.574;2023-08-31T02:10:43;94981.06;;;11.81;100.00
27429;BME280;14881;48.092;11.574;2023-08-31T02:13:10;94995.06;;;11.89;100.00
27429;BME280;14881;48.092;11.574;2023-08-31T02:15:38;94990.91;;;11.91;100.00
27429;BME280;14881;48.092;11.574;2023-08-31T02:18:04;94994.28;;;11.97;100.00
27429;BME280;14881;48.092;11.574;2023-08-31T02:20:31;94994.78;;;11.99;100.00
27429;BME280;14881;48.092;11.574;2023-08-31T02:22:57;95007.59;;;11.98;100.00
27429;BME280;14881;48.092;11.574;2023-08-31T02:25:24;95015.22;;;12.10;100.00
27429;BME280;14881;48.092;11.574;2023-08-31T02:27:53;95020.66;;;12.10;100.00
27429;BME280;14881;48.092;11.574;2023-08-31T02:30:20;95032.78;;;12.04;100.00
27429;BME280;14881;48.092;11.574;2023-08-31T02:32:47;95041.81;;;12.13;100.00
27429;BME280;14881;48.092;11.574;2023-08-31T02:35:13;95060.63;;;12.23;100.00
27429;BME280;14881;48.092;11.574;2023-08-31T02:37:40;95060.81;;;12.27;100.00
27429;BME280;14881;48.092;11.574;2023-08-31T02:40:07;95058.53;;;12.20;100.00
27429;BME280;14881;48.092;11.574;2023-08-31T02:42:34;95070.59;;;12.05;100.00
27429;BME280;14881;48.092;11.574;2023-08-31T02:45:00;95062.31;;;12.10;100.00
27429;BME280;14881;48.092;11.574;2023-08-31T02:47:27;95066.75;;;12.06;100.00
27429;BME280;14881;48.092;11.574;2023-08-31T02:49:54;95072.09;;;12.11;100.00
27429;BME280;14881;48.092;11.574;2023-08-31T02:52:20;95064.59;;;12.17;100.00
27429;BME280;14881;48.092;11.574;2023-08-31T02:54:46;95061.81;;;12.08;100.00
27429;BME280;14881;48.092;11.574;2023-08-31T02:57:13;95075.47;;;12.17;100.00
27429;BME280;14881;48.092;11.574;2023-08-31T02:59:41;95072.44;;;12.18;100.00
27429;BME280;14881;48.092;11.574;2023-08-31T03:02:08;95079.31;;;12.16;100.00
27429;BME280;14881;48.092;11.574;2023-08-31T03:04:34;95077.91;;;12.18;100.00
27429;BME280;14881;48.092;11.574;2023-08-31T03:07:03;95068.63;;;12.19;100.00
27429;BME280;14881;48.092;11.574;2023-08-31T03:09:29;95062.66;;;12.17;100.00
27429;BME280;14881;48.092;11.574;2023-08-31T03:11:56;95057.72;;;12.19;100.00
27429;BME280;14881;48.092;11.574;2023-08-31T03:14:23;95067.50;;;12.20;100.00
27429;BME280;14881;48.092;11.574;2023-08-31T03:16:49;95070.03;;;12.17;100.00
27429;BME280;14881;48.092;11.574;2023-08-31T03:19:15;95066.31;;;12.13;100.00
27429;BME280;14881;48.092;11.574;2023-08-31T03:21:42;95070.97;;;12.12;100.00
27429;BME280;14881;48.092;11.574;2023-08-31T03:24:09;95074.63;;;12.08;100.00
27429;BME280;14881;48.092;11.574;2023-08-31T03:26:35;95078.47;;;12.07;100.00
27429;BME280;14881;48.092;11.574;2023-08-31T03:29:02;95080.38;;;12.06;100.00
27429;BME280;14881;48.092;11.574;2023-08-31T03:31:29;95076.84;;;12.06;100.00
27429;BME280;14881;48.092;11.574;2023-08-31T03:33:56;95073.44;;;12.00;100.00
27429;BME280;14881;48.092;11.574;2023-08-31T03:36:22;95068.28;;;11.99;100.00
27429;BME280;14881;48.092;11.574;2023-08-31T03:38:49;95083.03;;;11.98;100.00
27429;BME280;14881;48.092;11.574;2023-08-31T03:41:16;95084.13;;;11.97;100.00
27429;BME280;14881;48.092;11.574;2023-08-31T03:43:43;95087.50;;;11.94;100.00
27429;BME280;14881;48.092;11.574;2023-08-31T03:46:09;95091.34;;;11.93;100.00
27429;BME280;14881;48.092;11.574;2023-08-31T03:48:36;95086.81;;;11.88;100.00
27429;BME280;14881;48.092;11.574;2023-08-31T03:51:02;95097.88;;;11.92;100.00
27429;BME280;14881;48.092;11.574;2023-08-31T03:53:29;95103.13;;;11.88;100.00
27429;BME280;14881;48.092;11.574;2023-08-31T03:55:55;95105.09;;;11.96;100.00
27429;BME280;14881;48.092;11.574;2023-08-31T03:58:22;95104.50;;;11.99;100.00
27429;BME280;14881;48.092;11.574;2023-08-31T04:00:49;95105.31;;;12.00;100.00
27429;BME280;14881;48.092;11.574;2023-08-31T04:03:16;95104.81;;;11.98;100.00
27429;BME280;14881;48.092;11.574;2023-08-31T04:05:43;95109.94;;;11.99;100.00
27429;BME280;14881;48.092;11.574;2023-08-31T04:08:09;95110.88;;;11.95;100.00
27429;BME280;14881;48.092;11.574;2023-08-31T04:10:35;95115.19;;;11.96;100.00
27429;BME280;14881;48.092;11.574;2023-08-31T04:13:02;95120.34;;;11.97;100.00
27429;BME280;14881;48.092;11.574;2023-08-31T04:15:29;95118.41;;;11.98;100.00
27429;BME280;14881;48.092;11.574;2023-08-31T04:17:56;95117.91;;;11.96;100.00
27429;BME280;14881;48.092;11.574;2023-08-31T04:20:23;95123.56;;;11.99;100.00
27429;BME280;14881;48.092;11.574;2023-08-31T04:22:49;95129.50;;;12.01;100.00
27429;BME280;14881;48.092;11.574;2023-08-31T04:25:16;95133.94;;;11.97;100.00
27429;BME280;14881;48.092;11.574;2023-08-31T04:27:43;95130.81;;;12.04;100.00
27429;BME280;14881;48.092;11.574;2023-08-31T04:30:11;95131.41;;;12.01;100.00
27429;BME280;14881;48.092;11.574;2023-08-31T04:32:38;95135.34;;;12.08;100.00
27429;BME280;14881;48.092;11.574;2023-08-31T04:35:05;95140.78;;;12.08;100.00
27429;BME280;14881;48.092;11.574;2023-08-31T04:37:32;95145.63;;;12.11;100.00
27429;BME280;14881;48.092;11.574;2023-08-31T04:39:58;95148.00;;;12.13;100.00
27429;BME280;14881;48.092;11.574;2023-08-31T04:42:24;95155.56;;;12.16;100.00
27429;BME280;14881;48.092;11.574;2023-08-31T04:44:51;95159.41;;;12.15;100.00
27429;BME280;14881;48.092;11.574;2023-08-31T04:47:17;95164.25;;;12.18;100.00
27429;BME280;14881;48.092;11.574;2023-08-31T04:49:44;95156.38;;;12.16;100.00
27429;BME280;14881;48.092;11.574;2023-08-31T04:52:11;95158.09;;;12.12;100.00
27429;BME280;14881;48.092;11.574;2023-08-31T04:54:37;95155.88;;;12.14;100.00
27429;BME280;14881;48.092;11.574;2023-08-31T04:57:04;95158.59;;;12.14;100.00
27429;BME280;14881;48.092;11.574;2023-08-31T04:59:33;95160.03;;;12.12;100.00
27429;BME280;14881;48.092;11.574;2023-08-31T05:01:59;95163.88;;;12.11;100.00
27429;BME280;14881;48.092;11.574;2023-08-31T05:04:25;95167.50;;;12.06;100.00
27429;BME280;14881;48.092;11.574;2023-08-31T05:06:54;95170.53;;;12.05;100.00
27429;BME280;14881;48.092;11.574;2023-08-31T05:09:21;95178.91;;;12.08;100.00
27429;BME280;14881;48.092;11.574;2023-08-31T05:11:48;95178.31;;;12.11;100.00
27429;BME280;14881;48.092;11.574;2023-08-31T05:14:15;95175.38;;;12.08;100.00
27429;BME280;14881;48.092;11.574;2023-08-31T05:16:41;95176.75;;;12.19;100.00
27429;BME280;14881;48.092;11.574;2023-08-31T05:19:07;95183.25;;;12.32;100.00
27429;BME280;14881;48.092;11.574;2023-08-31T05:21:34;95174.34;;;12.40;100.00
27429;BME280;14881;48.092;11.574;2023-08-31T05:24:01;95169.75;;;12.49;100.00
27429;BME280;14881;48.092;11.574;2023-08-31T05:26:28;95182.97;;;12.55;100.00
27429;BME280;14881;48.092;11.574;2023-08-31T05:28:55;95183.47;;;12.58;100.00
27429;BME280;14881;48.092;11.574;2023-08-31T05:31:21;95183.66;;;12.61;100.00
27429;BME280;14881;48.092;11.574;2023-08-31T05:33:47;95174.59;;;12.52;100.00
27429;BME280;14881;48.092;11.574;2023-08-31T05:36:14;95187.31;;;12.57;100.00
27429;BME280;14881;48.092;11.574;2023-08-31T05:38:40;95187.09;;;12.53;100.00
27429;BME280;14881;48.092;11.574;2023-08-31T05:41:08;95192.44;;;12.58;100.00
27429;BME280;14881;48.092;11.574;2023-08-31T05:43:36;95190.88;;;12.66;100.00
27429;BME280;14881;48.092;11.574;2023-08-31T05:46:05;95202.66;;;12.75;100.00
27429;BME280;14881;48.092;11.574;2023-08-31T05:48:32;95201.25;;;12.77;100.00
27429;BME280;14881;48.092;11.574;2023-08-31T05:50:58;95198.38;;;12.82;100.00
27429;BME280;14881;48.092;11.574;2023-08-31T05:53:25;95210.75;;;12.88;100.00
27429;BME280;14881;48.092;11.574;2023-08-31T05:55:54;95210.44;;;12.90;100.00
27429;BME280;14881;48.092;11.574;2023-08-31T05:58:21;95209.16;;;12.87;100.00
27429;BME280;14881;48.092;11.574;2023-08-31T06:00:48;95200.47;;;12.85;100.00
27429;BME280;14881;48.092;11.574;2023-08-31T06:03:15;95212.19;;;12.86;100.00
27429;BME280;14881;48.092;11.574;2023-08-31T06:05:42;95221.97;;;12.87;100.00
27429;BME280;14881;48.092;11.574;2023-08-31T06:08:08;95223.97;;;12.95;100.00
27429;BME280;14881;48.092;11.574;2023-08-31T06:10:34;95229.63;;;12.99;100.00
27429;BME280;14881;48.092;11.574;2023-08-31T06:13:01;95220.47;;;13.03;100.00
27429;BME280;14881;48.092;11.574;2023-08-31T06:15:28;95233.19;;;13.08;100.00
27429;BME280;14881;48.092;11.574;2023-08-31T06:17:54;95228.84;;;13.07;100.00
27429;BME280;14881;48.092;11.574;2023-08-31T06:20:23;95222.47;;;13.11;100.00
27429;BME280;14881;48.092;11.574;2023-08-31T06:22:49;95217.50;;;13.13;100.00
27429;BME280;14881;48.092;11.574;2023-08-31T06:25:16;95220.41;;;13.17;100.00
27429;BME280;14881;48.092;11.574;2023-08-31T06:27:44;95223.34;;;13.20;100.00
27429;BME280;14881;48.092;11.574;2023-08-31T06:30:11;95221.91;;;13.23;100.00
27429;BME280;14881;48.092;11.574;2023-08-31T06:32:43;95221.16;;;13.31;100.00
27429;BME280;14881;48.092;11.574;2023-08-31T06:35:09;95214.91;;;13.39;100.00
27429;BME280;14881;48.092;11.574;2023-08-31T06:37:36;95224.91;;;13.44;100.00
27429;BME280;14881;48.092;11.574;2023-08-31T06:40:03;95227.00;;;13.47;100.00
27429;BME280;14881;48.092;11.574;2023-08-31T06:42:30;95231.84;;;13.50;100.00
27429;BME280;14881;48.092;11.574;2023-08-31T06:44:56;95231.06;;;13.58;100.00
27429;BME280;14881;48.092;11.574;2023-08-31T06:47:23;95240.06;;;13.58;100.00
27429;BME280;14881;48.092;11.574;2023-08-31T06:49:50;95226.91;;;13.69;100.00
27429;BME280;14881;48.092;11.574;2023-08-31T06:52:16;95235.78;;;13.75;100.00
27429;BME280;14881;48.092;11.574;2023-08-31T06:54:57;95231.63;;;13.77;100.00
27429;BME280;14881;48.092;11.574;2023-08-31T06:57:24;95237.69;;;13.74;100.00
27429;BME280;14881;48.092;11.574;2023-08-31T06:59:50;95241.56;;;13.73;100.00
27429;BME280;14881;48.092;11.574;2023-08-31T07:02:17;95243.16;;;13.74;100.00
27429;BME280;14881;48.092;11.574;2023-08-31T07:04:44;95243.78;;;13.71;100.00
27429;BME280;14881;48.092;11.574;2023-08-31T07:07:12;95238.19;;;13.76;100.00
27429;BME280;14881;48.092;11.574;2023-08-31T07:09:41;95246.88;;;13.78;100.00
27429;BME280;14881;48.092;11.574;2023-08-31T07:12:07;95242.41;;;13.82;100.00
27429;BME280;14881;48.092;11.574;2023-08-31T07:14:34;95245.63;;;13.84;100.00
27429;BME280;14881;48.092;11.574;2023-08-31T07:17:00;95253.47;;;13.86;100.00
27429;BME280;14881;48.092;11.574;2023-08-31T07:19:27;95264.00;;;14.01;100.00
27429;BME280;14881;48.092;11.574;2023-08-31T07:21:53;95260.94;;;14.11;100.00
27429;BME280;14881;48.092;11.574;2023-08-31T07:24:22;95264.19;;;14.22;100.00
27429;BME280;14881;48.092;11.574;2023-08-31T07:26:48;95261.97;;;14.33;100.00
27429;BME280;14881;48.092;11.574;2023-08-31T07:29:15;95259.44;;;14.45;100.00
27429;BME280;14881;48.092;11.574;2023-08-31T07:31:41;95264.59;;;14.63;100.00
27429;BME280;14881;48.092;11.574;2023-08-31T07:34:08;95257.38;;;14.68;100.00
27429;BME280;14881;48.092;11.574;2023-08-31T07:36:34;95269.59;;;14.70;100.00
27429;BME280;14881;48.092;11.574;2023-08-31T07:39:01;95269.91;;;14.60;100.00
27429;BME280;14881;48.092;11.574;2023-08-31T07:41:28;95279.25;;;14.68;100.00
27429;BME280;14881;48.092;11.574;2023-08-31T07:43:54;95285.03;;;14.75;100.00
27429;BME280;14881;48.092;11.574;2023-08-31T07:46:30;95277.94;;;14.74;100.00
27429;BME280;14881;48.092;11.574;2023-08-31T07:48:56;95286.47;;;14.63;100.00
27429;BME280;14881;48.092;11.574;2023-08-31T07:51:23;95284.88;;;14.71;100.00
27429;BME280;14881;48.092;11.574;2023-08-31T07:53:50;95282.13;;;14.80;100.00
27429;BME280;14881;48.092;11.574;2023-08-31T07:56:16;95279.25;;;14.85;100.00
27429;BME280;14881;48.092;11.574;2023-08-31T07:58:44;95275.06;;;14.79;100.00
27429;BME280;14881;48.092;11.574;2023-08-31T08:01:10;95274.72;;;14.97;100.00
27429;BME280;14881;48.092;11.574;2023-08-31T08:03:37;95282.91;;;15.15;100.00
27429;BME280;14881;48.092;11.574;2023-08-31T08:06:03;95270.69;;;15.21;100.00
27429;BME280;14881;48.092;11.574;2023-08-31T08:08:30;95274.56;;;15.20;100.00
27429;BME280;14881;48.092;11.574;2023-08-31T08:10:56;95258.75;;;15.34;100.00
27429;BME280;14881;48.092;11.574;2023-08-31T08:13:22;95262.72;;;15.45;100.00
27429;BME280;14881;48.092;11.574;2023-08-31T08:15:49;95273.06;;;15.57;100.00
27429;BME280;14881;48.092;11.574;2023-08-31T08:18:16;95273.81;;;15.66;100.00
27429;BME280;14881;48.092;11.574;2023-08-31T08:20:42;95263.50;;;15.63;100.00
27429;BME280;14881;48.092;11.574;2023-08-31T08:23:08;95270.44;;;15.69;100.00
27429;BME280;14881;48.092;11.574;2023-08-31T08:25:35;95275.19;;;15.89;100.00
27429;BME280;14881;48.092;11.574;2023-08-31T08:28:01;95275.03;;;16.24;100.00
27429;BME280;14881;48.092;11.574;2023-08-31T08:30:29;95278.16;;;16.64;100.00
27429;BME280;14881;48.092;11.574;2023-08-31T08:32:56;95278.50;;;16.83;100.00
27429;BME280;14881;48.092;11.574;2023-08-31T08:35:24;95281.28;;;16.54;100.00
27429;BME280;14881;48.092;11.574;2023-08-31T08:37:52;95284.22;;;16.19;100.00
27429;BME280;14881;48.092;11.574;2023-08-31T08:40:18;95271.41;;;16.02;100.00
27429;BME280;14881;48.092;11.574;2023-08-31T08:42:47;95277.44;;;15.87;100.00
27429;BME280;14881;48.092;11.574;2023-08-31T08:45:14;95279.50;;;15.99;100.00
27429;BME280;14881;48.092;11.574;2023-08-31T08:47:42;95284.72;;;15.83;100.00
27429;BME280;14881;48.092;11.574;2023-08-31T08:50:11;95288.63;;;15.74;100.00
27429;BME280;14881;48.092;11.574;2023-08-31T08:52:37;95289.22;;;15.79;100.00
27429;BME280;14881;48.092;11.574;2023-08-31T08:55:05;95280.66;;;15.89;100.00
27429;BME280;14881;48.092;11.574;2023-08-31T08:57:32;95274.06;;;16.20;100.00
27429;BME280;14881;48.092;11.574;2023-08-31T08:59:59;95264.66;;;16.59;100.00
27429;BME280;14881;48.092;11.574;2023-08-31T09:02:25;95270.13;;;17.00;100.00
27429;BME280;14881;48.092;11.574;2023-08-31T09:04:52;95282.38;;;17.24;100.00
27429;BME280;14881;48.092;11.574;2023-08-31T09:07:21;95280.69;;;17.31;100.00
27429;BME280;14881;48.092;11.574;2023-08-31T09:09:52;95289.34;;;17.21;100.00
27429;BME280;14881;48.092;11.574;2023-08-31T09:12:21;95301.09;;;17.10;100.00
27429;BME280;14881;48.092;11.574;2023-08-31T09:14:57;95288.22;;;17.01;100.00
27429;BME280;14881;48.092;11.574;2023-08-31T09:17:24;95291.75;;;16.81;100.00
27429;BME280;14881;48.092;11.574;2023-08-31T09:19:58;95295.56;;;16.68;100.00
27429;BME280;14881;48.092;11.574;2023-08-31T09:22:26;95303.72;;;16.56;100.00
27429;BME280;14881;48.092;11.574;2023-08-31T09:24:52;95307.63;;;16.46;100.00
27429;BME280;14881;48.092;11.574;2023-08-31T09:27:20;95311.22;;;16.38;100.00
27429;BME280;14881;48.092;11.574;2023-08-31T09:29:46;95309.84;;;16.23;100.00
27429;BME280;14881;48.092;11.574;2023-08-31T09:32:16;95318.91;;;16.15;100.00
27429;BME280;14881;48.092;11.574;2023-08-31T09:34:42;95308.56;;;16.21;100.00
27429;BME280;14881;48.092;11.574;2023-08-31T09:37:09;95310.75;;;16.36;100.00
27429;BME280;14881;48.092;11.574;2023-08-31T09:39:36;95310.84;;;16.48;100.00
27429;BME280;14881;48.092;11.574;2023-08-31T09:42:03;95305.81;;;16.80;100.00
27429;BME280;14881;48.092;11.574;2023-08-31T09:44:30;95307.09;;;17.03;100.00
27429;BME280;14881;48.092;11.574;2023-08-31T09:46:57;95306.63;;;17.22;100.00
27429;BME280;14881;48.092;11.574;2023-08-31T09:49:25;95300.13;;;17.26;100.00
27429;BME280;14881;48.092;11.574;2023-08-31T09:51:51;95290.88;;;17.31;100.00
27429;BME280;14881;48.092;11.574;2023-08-31T09:54:20;95284.97;;;17.41;100.00
27429;BME280;14881;48.092;11.574;2023-08-31T09:56:49;95283.47;;;17.64;100.00
27429;BME280;14881;48.092;11.574;2023-08-31T09:59:17;95275.38;;;18.04;100.00
27429;BME280;14881;48.092;11.574;2023-08-31T10:01:45;95285.84;;;18.35;100.00
27429;BME280;14881;48.092;11.574;2023-08-31T10:04:12;95279.50;;;18.23;100.00
27429;BME280;14881;48.092;11.574;2023-08-31T10:06:39;95278.53;;;17.70;100.00
27429;BME280;14881;48.092;11.574;2023-08-31T10:09:06;95277.81;;;17.28;100.00
27429;BME280;14881;48.092;11.574;2023-08-31T10:11:37;95287.34;;;17.10;100.00
27429;BME280;14881;48.092;11.574;2023-08-31T10:14:05;95284.41;;;16.94;100.00
27429;BME280;14881;48.092;11.574;2023-08-31T10:16:32;95285.69;;;16.96;100.00
27429;BME280;14881;48.092;11.574;2023-08-31T10:18:58;95296.13;;;17.03;100.00
27429;BME280;14881;48.092;11.574;2023-08-31T10:21:25;95284.09;;;16.95;100.00
27429;BME280;14881;48.092;11.574;2023-08-31T10:23:51;95286.03;;;16.95;100.00
27429;BME280;14881;48.092;11.574;2023-08-31T10:26:26;95287.88;;;17.03;100.00
27429;BME280;14881;48.092;11.574;2023-08-31T10:28:52;95285.28;;;17.07;100.00
27429;BME280;14881;48.092;11.574;2023-08-31T10:31:20;95287.59;;;17.17;100.00
27429;BME280;14881;48.092;11.574;2023-08-31T10:33:55;95277.84;;;17.07;100.00
27429;BME280;14881;48.092;11.574;2023-08-31T10:36:34;95295.66;;;17.01;100.00
27429;BME280;14881;48.092;11.574;2023-08-31T10:39:05;95289.63;;;16.87;100.00
27429;BME280;14881;48.092;11.574;2023-08-31T10:41:33;95288.91;;;16.78;100.00
27429;BME280;14881;48.092;11.574;2023-08-31T10:44:17;95294.44;;;16.69;100.00
27429;BME280;14881;48.092;11.574;2023-08-31T10:46:45;95285.59;;;16.63;100.00
27429;BME280;14881;48.092;11.574;2023-08-31T10:49:14;95294.53;;;16.52;100.00
27429;BME280;14881;48.092;11.574;2023-08-31T10:51:42;95293.78;;;16.43;100.00
27429;BME280;14881;48.092;11.574;2023-08-31T10:54:10;95290.28;;;16.33;100.00
27429;BME280;14881;48.092;11.574;2023-08-31T10:57:01;95279.50;;;16.28;100.00
27429;BME280;14881;48.092;11.574;2023-08-31T10:59:47;95291.88;;;16.34;100.00
27429;BME280;14881;48.092;11.574;2023-08-31T11:02:28;95305.34;;;16.19;100.00
27429;BME280;14881;48.092;11.574;2023-08-31T11:04:55;95298.34;;;16.30;100.00
27429;BME280;14881;48.092;11.574;2023-08-31T11:07:26;95298.19;;;16.64;100.00
27429;BME280;14881;48.092;11.574;2023-08-31T11:10:13;95286.16;;;16.78;100.00
27429;BME280;14881;48.092;11.574;2023-08-31T11:12:41;95292.91;;;16.80;100.00
27429;BME280;14881;48.092;11.574;2023-08-31T11:15:08;95289.91;;;16.73;100.00
27429;BME280;14881;48.092;11.574;2023-08-31T11:17:36;95296.38;;;16.68;100.00
27429;BME280;14881;48.092;11.574;2023-08-31T11:20:07;95295.16;;;16.57;100.00
27429;BME280;14881;48.092;11.574;2023-08-31T11:22:38;95296.31;;;16.48;100.00
27429;BME280;14881;48.092;11.574;2023-08-31T11:25:07;95287.59;;;16.25;100.00
27429;BME280;14881;48.092;11.574;2023-08-31T11:27:34;95295.84;;;16.16;100.00
27429;BME280;14881;48.092;11.574;2023-08-31T11:30:00;95318.56;;;15.87;100.00
27429;BME280;14881;48.092;11.574;2023-08-31T11:32:27;95333.31;;;15.40;100.00
27429;BME280;14881;48.092;11.574;2023-08-31T11:34:54;95345.53;;;14.99;100.00
27429;BME280;14881;48.092;11.574;2023-08-31T11:37:23;95353.06;;;14.68;100.00
27429;BME280;14881;48.092;11.574;2023-08-31T11:39:50;95349.72;;;14.79;100.00
27429;BME280;14881;48.092;11.574;2023-08-31T11:42:19;95358.91;;;15.18;100.00
27429;BME280;14881;48.092;11.574;2023-08-31T11:44:46;95361.31;;;15.54;100.00
27429;BME280;14881;48.092;11.574;2023-08-31T11:47:14;95354.66;;;15.81;100.00
27429;BME280;14881;48.092;11.574;2023-08-31T11:49:41;95367.88;;;15.79;100.00
27429;BME280;14881;48.092;11.574;2023-08-31T11:52:10;95351.31;;;15.75;100.00
27429;BME280;14881;48.092;11.574;2023-08-31T11:54:37;95356.31;;;15.64;100.00
27429;BME280;14881;48.092;11.574;2023-08-31T11:57:06;95344.16;;;15.91;100.00
27429;BME280;14881;48.092;11.574;2023-08-31T11:59:34;95331.97;;;16.48;100.00
27429;BME280;14881;48.092;11.574;2023-08-31T12:02:01;95336.28;;;16.87;100.00
27429;BME280;14881;48.092;11.574;2023-08-31T12:04:31;95315.00;;;17.25;100.00
27429;BME280;14881;48.092;11.574;2023-08-31T12:07:01;95310.63;;;17.24;100.00
27429;BME280;14881;48.092;11.574;2023-08-31T12:09:31;95319.94;;;16.40;100.00
27429;BME280;14881;48.092;11.574;2023-08-31T12:11:57;95331.22;;;16.00;100.00
27429;BME280;14881;48.092;11.574;2023-08-31T12:14:25;95345.59;;;15.97;100.00
27429;BME280;14881;48.092;11.574;2023-08-31T12:17:00;95329.13;;;16.35;100.00
27429;BME280;14881;48.092;11.574;2023-08-31T12:19:29;95339.81;;;16.28;100.00
27429;BME280;14881;48.092;11.574;2023-08-31T12:21:56;95346.63;;;16.22;100.00
27429;BME280;14881;48.092;11.574;2023-08-31T12:24:23;95345.34;;;16.20;100.00
27429;BME280;14881;48.092;11.574;2023-08-31T12:26:50;95339.38;;;16.18;100.00
27429;BME280;14881;48.092;11.574;2023-08-31T12:29:19;95337.19;;;16.41;100.00
27429;BME280;14881;48.092;11.574;2023-08-31T12:31:46;95346.09;;;16.29;100.00
27429;BME280;14881;48.092;11.574;2023-08-31T12:34:12;95332.91;;;16.22;100.00
27429;BME280;14881;48.092;11.574;2023-08-31T12:36:39;95330.75;;;16.36;100.00
27429;BME280;14881;48.092;11.574;2023-08-31T12:39:07;95324.13;;;16.38;100.00
27429;BME280;14881;48.092;11.574;2023-08-31T12:41:35;95326.31;;;16.53;100.00
27429;BME280;14881;48.092;11.574;2023-08-31T12:44:02;95326.59;;;16.89;100.00